EWG2PC EDDV-LEIB
Flight info
| Callsign | EWG2PC |
|---|---|
| Flight time | N/A |
| Altitude | 35000 |
| Route | TOLTA1F/27L TOLTA DCT WERRA P605 ELNAT Z99 MASEK DCT KRH T715 PABLA Y163 HERBI Y164 OLBEN/N0448F370 DCT ONNOF DCT BELUS DCT PEQEF DCT KANIG DCT TOLSO |
| Aircraft | A320/M-SDE3FGHIRWY/LB1 |
Departure
| Time | N/A |
|---|---|
| Airport | Hannover Airport (EDDV) |
Arrival
| Time | 2026-05-03 22:08 |
|---|---|
| Airport | Ibiza Airport (LEIB) |
| Time | Latitude | Longitude | Altitude | Speed | Heading |
|---|---|---|---|---|---|
| 2026-05-03 20:15 | 48.95472 | 8.54087 | 37022 ft | 413 kts | 218° |
| 2026-05-03 20:15 | 48.90874 | 8.48837 | 37024 ft | 413 kts | 218° |
| 2026-05-03 20:16 | 48.86269 | 8.43595 | 37024 ft | 414 kts | 218° |
| 2026-05-03 20:16 | 48.81657 | 8.38364 | 37026 ft | 414 kts | 217° |
| 2026-05-03 20:17 | 48.76533 | 8.34413 | 37027 ft | 417 kts | 199° |
| 2026-05-03 20:17 | 48.70895 | 8.32316 | 37020 ft | 417 kts | 195° |
| 2026-05-03 20:18 | 48.65253 | 8.30257 | 37015 ft | 417 kts | 195° |
| 2026-05-03 20:18 | 48.59601 | 8.28177 | 37009 ft | 419 kts | 196° |
| 2026-05-03 20:19 | 48.53930 | 8.26110 | 37015 ft | 419 kts | 195° |
| 2026-05-03 20:19 | 48.48296 | 8.24074 | 37023 ft | 419 kts | 195° |
| 2026-05-03 20:20 | 48.42583 | 8.22003 | 37024 ft | 420 kts | 195° |
| 2026-05-03 20:20 | 48.36909 | 8.19931 | 37026 ft | 419 kts | 195° |
| 2026-05-03 20:21 | 48.31277 | 8.17879 | 37031 ft | 419 kts | 195° |
| 2026-05-03 20:21 | 48.25612 | 8.15805 | 37028 ft | 419 kts | 197° |
| 2026-05-03 20:22 | 48.20136 | 8.12896 | 37021 ft | 418 kts | 202° |
| 2026-05-03 20:22 | 48.14700 | 8.09813 | 37022 ft | 418 kts | 202° |
| 2026-05-03 20:23 | 48.09251 | 8.06738 | 37025 ft | 419 kts | 202° |
| 2026-05-03 20:23 | 48.03811 | 8.03673 | 37031 ft | 419 kts | 202° |
| 2026-05-03 20:24 | 47.98348 | 8.00602 | 37038 ft | 419 kts | 202° |
| 2026-05-03 20:24 | 47.92899 | 7.97539 | 37040 ft | 419 kts | 202° |
| 2026-05-03 20:25 | 47.87444 | 7.94474 | 37042 ft | 419 kts | 202° |
| 2026-05-03 20:25 | 47.81987 | 7.91427 | 37043 ft | 419 kts | 202° |
| 2026-05-03 20:26 | 47.76524 | 7.88381 | 37051 ft | 419 kts | 202° |
| 2026-05-03 20:26 | 47.71069 | 7.85338 | 37053 ft | 419 kts | 202° |
| 2026-05-03 20:27 | 47.65612 | 7.82297 | 37053 ft | 419 kts | 202° |
| 2026-05-03 20:27 | 47.60149 | 7.79283 | 37053 ft | 419 kts | 202° |
| 2026-05-03 20:28 | 47.54691 | 7.76276 | 37056 ft | 419 kts | 202° |
| 2026-05-03 20:28 | 47.49230 | 7.73263 | 37057 ft | 418 kts | 202° |
| 2026-05-03 20:29 | 47.43812 | 7.70271 | 37060 ft | 418 kts | 202° |
| 2026-05-03 20:29 | 47.38361 | 7.67275 | 37065 ft | 418 kts | 202° |
| 2026-05-03 20:30 | 47.32905 | 7.64270 | 37070 ft | 417 kts | 205° |
| 2026-05-03 20:30 | 47.28031 | 7.59781 | 37070 ft | 413 kts | 223° |
| 2026-05-03 20:31 | 47.23756 | 7.54134 | 37071 ft | 413 kts | 223° |
| 2026-05-03 20:31 | 47.19464 | 7.48531 | 37068 ft | 413 kts | 223° |
| 2026-05-03 20:32 | 47.15166 | 7.42943 | 37071 ft | 412 kts | 223° |
| 2026-05-03 20:32 | 47.10878 | 7.37353 | 37069 ft | 412 kts | 223° |
| 2026-05-03 20:33 | 47.06596 | 7.31786 | 37069 ft | 411 kts | 223° |
| 2026-05-03 20:33 | 47.02311 | 7.26226 | 37069 ft | 411 kts | 223° |
| 2026-05-03 20:34 | 46.98051 | 7.20725 | 37069 ft | 411 kts | 223° |
| 2026-05-03 20:34 | 46.93766 | 7.15199 | 37072 ft | 410 kts | 223° |
| 2026-05-03 20:35 | 46.89481 | 7.09676 | 37074 ft | 411 kts | 223° |
| 2026-05-03 20:35 | 46.85188 | 7.04146 | 37084 ft | 411 kts | 223° |
| 2026-05-03 20:36 | 46.80896 | 6.98633 | 37104 ft | 411 kts | 223° |
| 2026-05-03 20:36 | 46.76606 | 6.93140 | 37090 ft | 410 kts | 223° |
| 2026-05-03 20:37 | 46.72308 | 6.87654 | 37090 ft | 410 kts | 223° |
| 2026-05-03 20:37 | 46.68022 | 6.82192 | 37089 ft | 409 kts | 223° |
| 2026-05-03 20:38 | 46.63733 | 6.76748 | 37094 ft | 409 kts | 223° |
| 2026-05-03 20:38 | 46.59440 | 6.71315 | 37097 ft | 409 kts | 223° |
| 2026-05-03 20:39 | 46.55179 | 6.65922 | 37097 ft | 409 kts | 223° |
| 2026-05-03 20:39 | 46.50895 | 6.60505 | 37090 ft | 408 kts | 223° |
| 2026-05-03 20:40 | 46.46616 | 6.55105 | 37100 ft | 408 kts | 223° |
| 2026-05-03 20:40 | 46.42335 | 6.49720 | 37090 ft | 407 kts | 223° |
| 2026-05-03 20:41 | 46.38057 | 6.44356 | 37084 ft | 407 kts | 223° |
| 2026-05-03 20:41 | 46.33781 | 6.38991 | 37085 ft | 407 kts | 223° |
| 2026-05-03 20:42 | 46.29500 | 6.33638 | 37091 ft | 406 kts | 223° |
| 2026-05-03 20:42 | 46.25217 | 6.28311 | 37100 ft | 406 kts | 223° |
| 2026-05-03 20:43 | 46.20936 | 6.22982 | 37094 ft | 406 kts | 223° |
| 2026-05-03 20:43 | 46.16656 | 6.17666 | 37091 ft | 406 kts | 223° |
| 2026-05-03 20:44 | 46.12406 | 6.12405 | 37100 ft | 405 kts | 223° |
| 2026-05-03 20:44 | 46.08095 | 6.07085 | 37085 ft | 405 kts | 223° |
| 2026-05-03 20:45 | 46.03853 | 6.01844 | 37086 ft | 404 kts | 223° |
| 2026-05-03 20:45 | 45.99583 | 5.96575 | 37082 ft | 405 kts | 223° |
| 2026-05-03 20:46 | 45.95302 | 5.91312 | 37083 ft | 405 kts | 222° |
| 2026-05-03 20:46 | 45.90946 | 5.86172 | 37082 ft | 405 kts | 221° |
| 2026-05-03 20:47 | 45.86524 | 5.81145 | 37100 ft | 406 kts | 220° |
| 2026-05-03 20:47 | 45.82100 | 5.76117 | 37081 ft | 406 kts | 220° |
| 2026-05-03 20:48 | 45.77696 | 5.71059 | 37079 ft | 406 kts | 221° |
| 2026-05-03 20:48 | 45.73291 | 5.65999 | 37080 ft | 406 kts | 220° |
| 2026-05-03 20:49 | 45.68893 | 5.60953 | 37080 ft | 406 kts | 221° |
| 2026-05-03 20:49 | 45.64433 | 5.55993 | 37081 ft | 406 kts | 219° |
| 2026-05-03 20:50 | 45.60643 | 5.52034 | 37079 ft | 406 kts | 218° |
| 2026-05-03 20:50 | 45.55325 | 5.46540 | 37078 ft | 406 kts | 218° |
| 2026-05-03 20:51 | 45.50773 | 5.41785 | 37084 ft | 405 kts | 219° |
| 2026-05-03 20:51 | 45.46995 | 5.37831 | 37094 ft | 405 kts | 218° |
| 2026-05-03 20:52 | 45.42455 | 5.33091 | 37091 ft | 405 kts | 218° |
| 2026-05-03 20:52 | 45.37915 | 5.28359 | 37091 ft | 404 kts | 218° |
| 2026-05-03 20:53 | 45.33385 | 5.23644 | 37083 ft | 403 kts | 218° |
| 2026-05-03 20:53 | 45.28867 | 5.18939 | 37099 ft | 402 kts | 218° |
| 2026-05-03 20:54 | 45.24347 | 5.14252 | 37085 ft | 402 kts | 218° |
| 2026-05-03 20:54 | 45.17557 | 5.07251 | 37076 ft | 403 kts | 218° |
| 2026-05-03 20:55 | 45.13025 | 5.02587 | 37077 ft | 403 kts | 218° |
| 2026-05-03 20:55 | 45.08491 | 4.97908 | 37081 ft | 403 kts | 218° |
| 2026-05-03 20:56 | 45.03982 | 4.93273 | 37096 ft | 403 kts | 218° |
| 2026-05-03 20:56 | 44.99438 | 4.88617 | 37092 ft | 403 kts | 218° |
| 2026-05-03 20:57 | 44.94894 | 4.83974 | 37083 ft | 403 kts | 218° |
| 2026-05-03 20:57 | 44.90355 | 4.79346 | 37079 ft | 402 kts | 218° |
| 2026-05-03 20:58 | 44.85821 | 4.74728 | 37078 ft | 402 kts | 218° |
| 2026-05-03 20:58 | 44.81296 | 4.70124 | 37078 ft | 400 kts | 218° |
| 2026-05-03 20:59 | 44.76768 | 4.65532 | 37072 ft | 401 kts | 218° |
| 2026-05-03 20:59 | 44.72266 | 4.60985 | 37073 ft | 401 kts | 218° |
| 2026-05-03 21:00 | 44.68474 | 4.57150 | 37076 ft | 401 kts | 218° |
| 2026-05-03 21:00 | 44.63217 | 4.51839 | 37078 ft | 401 kts | 218° |
| 2026-05-03 21:01 | 44.58689 | 4.47278 | 37078 ft | 401 kts | 218° |
| 2026-05-03 21:01 | 44.54160 | 4.42730 | 37100 ft | 400 kts | 218° |
| 2026-05-03 21:02 | 44.49632 | 4.38189 | 37103 ft | 400 kts | 218° |
| 2026-05-03 21:02 | 44.45103 | 4.33665 | 37098 ft | 400 kts | 218° |
| 2026-05-03 21:03 | 44.40578 | 4.29147 | 37089 ft | 400 kts | 218° |
| 2026-05-03 21:03 | 44.35846 | 4.25060 | 37099 ft | 402 kts | 209° |
| 2026-05-03 21:04 | 44.30832 | 4.21573 | 37090 ft | 403 kts | 209° |
| 2026-05-03 21:04 | 44.25863 | 4.18108 | 37082 ft | 402 kts | 209° |
| 2026-05-03 21:05 | 44.20865 | 4.14634 | 37084 ft | 401 kts | 209° |
| 2026-05-03 21:05 | 44.15873 | 4.11172 | 37086 ft | 400 kts | 209° |
| 2026-05-03 21:06 | 44.10883 | 4.07709 | 37080 ft | 401 kts | 209° |
| 2026-05-03 21:06 | 44.05893 | 4.04252 | 37079 ft | 401 kts | 208° |
| 2026-05-03 21:07 | 44.00888 | 4.00813 | 37092 ft | 402 kts | 208° |
| 2026-05-03 21:07 | 43.95878 | 3.97356 | 37086 ft | 402 kts | 209° |
| 2026-05-03 21:08 | 43.90873 | 3.93909 | 37086 ft | 402 kts | 208° |
| 2026-05-03 21:08 | 43.85866 | 3.90468 | 37085 ft | 402 kts | 208° |
| 2026-05-03 21:09 | 43.80861 | 3.87039 | 37084 ft | 401 kts | 208° |
| 2026-05-03 21:09 | 43.75852 | 3.83618 | 37080 ft | 401 kts | 208° |
| 2026-05-03 21:10 | 43.70847 | 3.80197 | 37081 ft | 401 kts | 208° |
| 2026-05-03 21:10 | 43.65836 | 3.76787 | 37081 ft | 401 kts | 208° |
| 2026-05-03 21:11 | 43.60857 | 3.73410 | 37079 ft | 402 kts | 208° |
| 2026-05-03 21:11 | 43.55839 | 3.69998 | 37086 ft | 402 kts | 208° |
| 2026-05-03 21:12 | 43.50818 | 3.66593 | 37083 ft | 402 kts | 208° |
| 2026-05-03 21:12 | 43.45793 | 3.63198 | 37079 ft | 402 kts | 208° |
| 2026-05-03 21:13 | 43.40769 | 3.59819 | 37073 ft | 403 kts | 208° |
| 2026-05-03 21:13 | 43.35737 | 3.56431 | 37071 ft | 402 kts | 208° |
| 2026-05-03 21:14 | 43.30710 | 3.53053 | 37069 ft | 402 kts | 208° |
| 2026-05-03 21:14 | 43.25677 | 3.49676 | 37066 ft | 402 kts | 208° |
| 2026-05-03 21:15 | 43.20648 | 3.46297 | 37063 ft | 403 kts | 208° |
| 2026-05-03 21:15 | 43.15611 | 3.42923 | 37054 ft | 403 kts | 208° |
| 2026-05-03 21:16 | 43.10567 | 3.39553 | 37053 ft | 404 kts | 208° |
| 2026-05-03 21:16 | 43.05545 | 3.36194 | 37060 ft | 404 kts | 208° |
| 2026-05-03 21:17 | 43.01309 | 3.33379 | 37061 ft | 404 kts | 208° |
| 2026-05-03 21:17 | 42.95433 | 3.29496 | 37056 ft | 404 kts | 208° |
| 2026-05-03 21:18 | 42.90380 | 3.26150 | 37049 ft | 404 kts | 208° |
| 2026-05-03 21:18 | 42.85327 | 3.22807 | 37040 ft | 404 kts | 208° |
| 2026-05-03 21:19 | 42.80271 | 3.19467 | 37038 ft | 404 kts | 207° |
| 2026-05-03 21:19 | 42.75202 | 3.16132 | 37037 ft | 405 kts | 208° |
| 2026-05-03 21:20 | 42.70139 | 3.12797 | 37034 ft | 405 kts | 208° |
| 2026-05-03 21:20 | 42.65066 | 3.09469 | 37036 ft | 405 kts | 208° |
| 2026-05-03 21:21 | 42.59990 | 3.06140 | 37037 ft | 405 kts | 208° |
| 2026-05-03 21:21 | 42.54910 | 3.02817 | 37042 ft | 405 kts | 207° |
| 2026-05-03 21:22 | 42.49835 | 2.99512 | 37043 ft | 405 kts | 207° |
| 2026-05-03 21:22 | 42.44449 | 2.97213 | 37043 ft | 409 kts | 195° |
| 2026-05-03 21:23 | 42.38937 | 2.95528 | 37040 ft | 409 kts | 195° |
| 2026-05-03 21:23 | 42.33389 | 2.93826 | 37042 ft | 409 kts | 195° |
| 2026-05-03 21:24 | 42.27841 | 2.92124 | 37045 ft | 409 kts | 195° |
| 2026-05-03 21:24 | 42.22290 | 2.90431 | 37050 ft | 409 kts | 195° |
| 2026-05-03 21:25 | 42.16736 | 2.88735 | 37050 ft | 409 kts | 196° |
| 2026-05-03 21:25 | 42.11185 | 2.87049 | 37052 ft | 409 kts | 195° |
| 2026-05-03 21:26 | 42.05631 | 2.85367 | 37057 ft | 409 kts | 195° |
| 2026-05-03 21:26 | 42.00072 | 2.83683 | 37058 ft | 409 kts | 195° |
| 2026-05-03 21:27 | 41.94515 | 2.82008 | 37050 ft | 410 kts | 196° |
| 2026-05-03 21:27 | 41.88946 | 2.80329 | 37051 ft | 410 kts | 196° |
| 2026-05-03 21:28 | 41.83369 | 2.78650 | 37051 ft | 412 kts | 196° |
| 2026-05-03 21:28 | 41.77817 | 2.76982 | 37058 ft | 411 kts | 196° |
| 2026-05-03 21:29 | 41.72229 | 2.75301 | 37061 ft | 412 kts | 196° |
| 2026-05-03 21:29 | 41.66639 | 2.73621 | 37061 ft | 412 kts | 196° |
| 2026-05-03 21:30 | 41.61052 | 2.71937 | 37067 ft | 412 kts | 196° |
| 2026-05-03 21:30 | 41.55461 | 2.70267 | 37069 ft | 411 kts | 196° |
| 2026-05-03 21:31 | 41.49877 | 2.68602 | 37066 ft | 411 kts | 196° |
| 2026-05-03 21:31 | 41.44289 | 2.66932 | 37058 ft | 412 kts | 196° |
| 2026-05-03 21:32 | 41.38696 | 2.65272 | 37055 ft | 412 kts | 196° |
| 2026-05-03 21:32 | 41.33088 | 2.63614 | 37052 ft | 412 kts | 196° |
| 2026-05-03 21:33 | 41.27490 | 2.61956 | 37051 ft | 413 kts | 197° |
| 2026-05-03 21:33 | 41.21877 | 2.60298 | 37046 ft | 413 kts | 197° |
| 2026-05-03 21:34 | 41.16309 | 2.58657 | 37040 ft | 413 kts | 197° |
| 2026-05-03 21:34 | 41.10703 | 2.57004 | 37039 ft | 413 kts | 197° |
| 2026-05-03 21:35 | 41.05092 | 2.55357 | 37036 ft | 413 kts | 197° |
| 2026-05-03 21:35 | 40.99476 | 2.53707 | 37032 ft | 413 kts | 197° |
| 2026-05-03 21:36 | 40.93866 | 2.52055 | 37031 ft | 413 kts | 197° |
| 2026-05-03 21:36 | 40.88255 | 2.50407 | 37030 ft | 412 kts | 197° |
| 2026-05-03 21:37 | 40.82641 | 2.48771 | 37025 ft | 413 kts | 197° |
| 2026-05-03 21:37 | 40.77017 | 2.47139 | 37030 ft | 414 kts | 197° |
| 2026-05-03 21:38 | 40.71381 | 2.45501 | 37026 ft | 415 kts | 198° |
| 2026-05-03 21:38 | 40.65746 | 2.43863 | 37027 ft | 415 kts | 198° |
| 2026-05-03 21:39 | 40.60138 | 2.42236 | 37029 ft | 415 kts | 198° |
| 2026-05-03 21:39 | 40.54488 | 2.40593 | 37028 ft | 416 kts | 198° |
| 2026-05-03 21:40 | 40.48617 | 2.40059 | 37030 ft | 430 kts | 180° |
| 2026-05-03 21:40 | 40.42753 | 2.41824 | 37026 ft | 437 kts | 171° |
| 2026-05-03 21:41 | 40.36872 | 2.43878 | 37020 ft | 437 kts | 172° |
| 2026-05-03 21:41 | 40.30981 | 2.45917 | 37015 ft | 438 kts | 172° |
| 2026-05-03 21:42 | 40.25080 | 2.47951 | 37017 ft | 439 kts | 172° |
| 2026-05-03 21:42 | 40.19141 | 2.49239 | 37017 ft | 426 kts | 186° |
| 2026-05-03 21:43 | 40.13311 | 2.48560 | 37015 ft | 420 kts | 193° |
| 2026-05-03 21:43 | 40.07506 | 2.47654 | 37016 ft | 421 kts | 193° |
| 2026-05-03 21:44 | 40.01681 | 2.46759 | 36768 ft | 422 kts | 193° |
| 2026-05-03 21:44 | 39.98770 | 2.46312 | 36518 ft | 421 kts | 193° |
| 2026-05-03 21:44 | 39.96446 | 2.45954 | 36330 ft | 421 kts | 193° |
| 2026-05-03 21:45 | 39.93529 | 2.45506 | 35981 ft | 423 kts | 193° |
| 2026-05-03 21:45 | 39.90588 | 2.45055 | 35185 ft | 428 kts | 193° |
| 2026-05-03 21:45 | 39.87613 | 2.44596 | 34326 ft | 432 kts | 192° |
| 2026-05-03 21:45 | 39.84613 | 2.44129 | 33486 ft | 435 kts | 192° |
| 2026-05-03 21:46 | 39.81630 | 2.43664 | 32563 ft | 440 kts | 192° |
| 2026-05-03 21:46 | 39.78580 | 2.43191 | 31548 ft | 445 kts | 191° |
| 2026-05-03 21:46 | 39.75499 | 2.42718 | 30593 ft | 447 kts | 190° |
| 2026-05-03 21:46 | 39.72392 | 2.42247 | 29520 ft | 452 kts | 190° |
| 2026-05-03 21:47 | 39.70278 | 2.41926 | 28771 ft | 454 kts | 189° |
| 2026-05-03 21:47 | 39.66125 | 2.41297 | 27733 ft | 449 kts | 189° |
| 2026-05-03 21:47 | 39.64077 | 2.40989 | 27291 ft | 445 kts | 189° |
| 2026-05-03 21:47 | 39.61028 | 2.40516 | 26598 ft | 438 kts | 192° |
| 2026-05-03 21:48 | 39.58124 | 2.39519 | 25918 ft | 427 kts | 204° |
| 2026-05-03 21:48 | 39.55509 | 2.37799 | 25268 ft | 418 kts | 215° |
| 2026-05-03 21:48 | 39.53263 | 2.35475 | 24651 ft | 409 kts | 226° |
| 2026-05-03 21:48 | 39.51446 | 2.32679 | 24046 ft | 403 kts | 236° |
| 2026-05-03 21:49 | 39.49922 | 2.29669 | 23458 ft | 397 kts | 237° |
| 2026-05-03 21:49 | 39.48417 | 2.26700 | 22885 ft | 392 kts | 237° |
| 2026-05-03 21:49 | 39.46932 | 2.23777 | 22341 ft | 386 kts | 237° |
| 2026-05-03 21:49 | 39.45469 | 2.20897 | 21822 ft | 380 kts | 237° |
| 2026-05-03 21:50 | 39.44023 | 2.18055 | 21319 ft | 375 kts | 237° |
| 2026-05-03 21:50 | 39.42602 | 2.15263 | 20846 ft | 369 kts | 237° |
| 2026-05-03 21:50 | 39.41201 | 2.12515 | 20374 ft | 363 kts | 237° |
| 2026-05-03 21:50 | 39.39819 | 2.09808 | 19943 ft | 357 kts | 237° |
| 2026-05-03 21:51 | 39.38461 | 2.07151 | 19523 ft | 352 kts | 237° |
| 2026-05-03 21:51 | 39.37120 | 2.04527 | 19079 ft | 347 kts | 237° |
| 2026-05-03 21:51 | 39.35796 | 2.01941 | 18664 ft | 344 kts | 237° |
| 2026-05-03 21:51 | 39.34485 | 1.99376 | 18247 ft | 340 kts | 237° |
| 2026-05-03 21:52 | 39.33188 | 1.96835 | 17836 ft | 337 kts | 237° |
| 2026-05-03 21:52 | 39.31901 | 1.94315 | 17429 ft | 336 kts | 237° |
| 2026-05-03 21:52 | 39.30616 | 1.91808 | 16998 ft | 333 kts | 237° |
| 2026-05-03 21:52 | 39.29339 | 1.89328 | 16581 ft | 331 kts | 237° |
| 2026-05-03 21:53 | 39.28095 | 1.86910 | 16390 ft | 312 kts | 237° |
| 2026-05-03 21:53 | 39.26940 | 1.84660 | 16264 ft | 290 kts | 237° |
| 2026-05-03 21:53 | 39.25864 | 1.82573 | 16136 ft | 270 kts | 237° |
| 2026-05-03 21:53 | 39.24871 | 1.80644 | 15923 ft | 256 kts | 237° |
| 2026-05-03 21:54 | 39.23902 | 1.78762 | 15614 ft | 250 kts | 237° |
| 2026-05-03 21:54 | 39.22946 | 1.76909 | 15362 ft | 247 kts | 237° |
| 2026-05-03 21:54 | 39.21998 | 1.75074 | 15119 ft | 245 kts | 237° |
| 2026-05-03 21:54 | 39.21058 | 1.73253 | 14860 ft | 243 kts | 237° |
| 2026-05-03 21:55 | 39.20179 | 1.71397 | 14587 ft | 243 kts | 243° |
| 2026-05-03 21:55 | 39.19403 | 1.69472 | 14322 ft | 242 kts | 242° |
| 2026-05-03 21:55 | 39.18628 | 1.67559 | 13987 ft | 240 kts | 242° |
| 2026-05-03 21:55 | 39.17849 | 1.65656 | 13638 ft | 239 kts | 242° |
| 2026-05-03 21:56 | 39.17075 | 1.63773 | 13334 ft | 238 kts | 242° |
| 2026-05-03 21:56 | 39.16302 | 1.61899 | 13081 ft | 236 kts | 242° |
| 2026-05-03 21:56 | 39.15530 | 1.60046 | 12835 ft | 234 kts | 238° |
| 2026-05-03 21:56 | 39.14381 | 1.58612 | 12580 ft | 235 kts | 209° |
| 2026-05-03 21:57 | 39.12762 | 1.58270 | 12326 ft | 246 kts | 175° |
| 2026-05-03 21:57 | 39.11146 | 1.59122 | 12073 ft | 254 kts | 159° |
| 2026-05-03 21:57 | 39.09599 | 1.60206 | 11799 ft | 254 kts | 156° |
| 2026-05-03 21:57 | 39.08291 | 1.61808 | 11421 ft | 275 kts | 124° |
| 2026-05-03 21:58 | 39.07855 | 1.64216 | 10981 ft | 283 kts | 86° |
| 2026-05-03 21:58 | 39.08378 | 1.66649 | 10575 ft | 285 kts | 67° |
| 2026-05-03 21:58 | 39.09284 | 1.68952 | 10134 ft | 291 kts | 60° |
| 2026-05-03 21:58 | 39.10322 | 1.71193 | 9691 ft | 289 kts | 58° |
| 2026-05-03 21:59 | 39.11351 | 1.73383 | 9246 ft | 282 kts | 62° |
| 2026-05-03 21:59 | 39.11869 | 1.75747 | 8806 ft | 272 kts | 95° |
| 2026-05-03 21:59 | 39.11331 | 1.77969 | 8378 ft | 255 kts | 130° |
| 2026-05-03 21:59 | 39.10050 | 1.79413 | 7966 ft | 240 kts | 156° |
| 2026-05-03 22:00 | 39.08608 | 1.80378 | 7586 ft | 235 kts | 156° |
| 2026-05-03 22:00 | 39.07094 | 1.81072 | 7209 ft | 225 kts | 181° |
| 2026-05-03 22:00 | 39.05633 | 1.80661 | 6861 ft | 218 kts | 212° |
| 2026-05-03 22:00 | 39.04587 | 1.79288 | 6538 ft | 219 kts | 240° |
| 2026-05-03 22:01 | 39.03898 | 1.77565 | 6209 ft | 214 kts | 239° |
| 2026-05-03 22:01 | 39.03169 | 1.75892 | 5891 ft | 217 kts | 240° |
| 2026-05-03 22:01 | 39.02452 | 1.74181 | 5563 ft | 216 kts | 240° |
| 2026-05-03 22:01 | 39.01753 | 1.72485 | 5276 ft | 214 kts | 240° |
| 2026-05-03 22:02 | 39.01064 | 1.70800 | 4975 ft | 211 kts | 240° |
| 2026-05-03 22:02 | 39.00383 | 1.69138 | 4680 ft | 209 kts | 240° |
| 2026-05-03 22:02 | 38.99708 | 1.67491 | 4401 ft | 207 kts | 240° |
| 2026-05-03 22:02 | 38.99042 | 1.65865 | 4115 ft | 205 kts | 239° |
| 2026-05-03 22:03 | 38.98382 | 1.64255 | 3832 ft | 202 kts | 239° |
| 2026-05-03 22:03 | 38.97728 | 1.62662 | 3555 ft | 201 kts | 239° |
| 2026-05-03 22:03 | 38.97076 | 1.61073 | 3276 ft | 200 kts | 239° |
| 2026-05-03 22:03 | 38.96432 | 1.59503 | 3001 ft | 198 kts | 238° |
| 2026-05-03 22:04 | 38.95799 | 1.57962 | 2847 ft | 191 kts | 238° |
| 2026-05-03 22:04 | 38.95206 | 1.56515 | 2695 ft | 174 kts | 239° |
| 2026-05-03 22:04 | 38.94671 | 1.55212 | 2549 ft | 161 kts | 238° |
| 2026-05-03 22:04 | 38.94163 | 1.53980 | 2420 ft | 152 kts | 239° |
| 2026-05-03 22:05 | 38.93680 | 1.52807 | 2375 ft | 148 kts | 239° |
| 2026-05-03 22:05 | 38.93200 | 1.51645 | 2217 ft | 148 kts | 240° |
| 2026-05-03 22:05 | 38.92720 | 1.50481 | 2042 ft | 147 kts | 240° |
| 2026-05-03 22:05 | 38.92242 | 1.49322 | 1853 ft | 147 kts | 241° |
| 2026-05-03 22:06 | 38.91764 | 1.48162 | 1662 ft | 147 kts | 242° |
| 2026-05-03 22:06 | 38.91287 | 1.47005 | 1455 ft | 145 kts | 242° |
| 2026-05-03 22:06 | 38.90818 | 1.45868 | 1277 ft | 143 kts | 242° |
| 2026-05-03 22:06 | 38.90355 | 1.44746 | 1087 ft | 141 kts | 243° |
| 2026-05-03 22:07 | 38.89896 | 1.43633 | 893 ft | 141 kts | 243° |
| 2026-05-03 22:07 | 38.89439 | 1.42520 | 658 ft | 141 kts | 242° |
| 2026-05-03 22:07 | 38.88978 | 1.41418 | 491 ft | 141 kts | 243° |
| 2026-05-03 22:07 | 38.88526 | 1.40308 | 302 ft | 139 kts | 243° |
| 2026-05-03 22:08 | 38.88070 | 1.39213 | 143 ft | 139 kts | 242° |
| 2026-05-03 22:08 | 38.87626 | 1.38132 | 12 ft | 130 kts | 242° |
| 2026-05-03 22:08 | 38.87288 | 1.37315 | 6 ft | 63 kts | 242° |
| 2026-05-03 22:08 | 38.87161 | 1.37012 | 7 ft | 33 kts | 242° |
| 2026-05-03 22:09 | 38.87101 | 1.36760 | 6 ft | 28 kts | 268° |
| 2026-05-03 22:09 | 38.87105 | 1.36595 | 7 ft | 12 kts | 279° |
| 2026-05-03 22:09 | 38.87158 | 1.36565 | 8 ft | 8 kts | 32° |
| 2026-05-03 22:10 | 38.87221 | 1.36703 | 8 ft | 9 kts | 62° |
| 2026-05-03 22:10 | 38.87249 | 1.36772 | 8 ft | 9 kts | 63° |
| 2026-05-03 22:10 | 38.87275 | 1.36841 | 8 ft | 8 kts | 64° |
| 2026-05-03 22:10 | 38.87314 | 1.36855 | 8 ft | 6 kts | 334° |
| 2026-05-03 22:11 | 38.87347 | 1.36833 | 8 ft | 7 kts | 334° |
| 2026-05-03 22:11 | 38.87391 | 1.36805 | 8 ft | 7 kts | 333° |
| 2026-05-03 22:11 | 38.87429 | 1.36793 | 8 ft | 5 kts | 15° |
| 2026-05-03 22:11 | 38.87453 | 1.36835 | 8 ft | 6 kts | 60° |
| 2026-05-03 22:12 | 38.87469 | 1.36876 | 8 ft | 5 kts | 63° |
| 2026-05-03 22:12 | 38.87483 | 1.36912 | 8 ft | 5 kts | 62° |
| 2026-05-03 22:12 | 38.87498 | 1.36947 | 8 ft | 4 kts | 62° |
| 2026-05-03 22:12 | 38.87515 | 1.36954 | 8 ft | 3 kts | 338° |
| 2026-05-03 22:13 | 38.87538 | 1.36934 | 8 ft | 4 kts | 332° |
| 2026-05-03 22:13 | 38.87558 | 1.36921 | 8 ft | 3 kts | 333° |
| 2026-05-03 22:13 | 38.87567 | 1.36915 | 8 ft | 0 kts | 332° |